sensor_id;sensor_type;location;lat;lon;timestamp;P1;durP1;ratioP1;P2;durP2;ratioP2
58242;SDS011;50118;53.232;8.252;2023-02-21T00:00:53;33.10;;;17.60;;
58242;SDS011;50118;53.232;8.252;2023-02-21T00:03:36;31.90;;;17.88;;
58242;SDS011;50118;53.232;8.252;2023-02-21T00:06:21;35.95;;;17.80;;
58242;SDS011;50118;53.232;8.252;2023-02-21T00:09:05;33.60;;;17.08;;
58242;SDS011;50118;53.232;8.252;2023-02-21T00:11:49;33.83;;;18.00;;
58242;SDS011;50118;53.232;8.252;2023-02-21T00:14:33;33.90;;;16.92;;
58242;SDS011;50118;53.232;8.252;2023-02-21T00:17:20;38.72;;;16.80;;
58242;SDS011;50118;53.232;8.252;2023-02-21T00:20:05;33.13;;;17.85;;
58242;SDS011;50118;53.232;8.252;2023-02-21T00:22:49;35.83;;;17.92;;
58242;SDS011;50118;53.232;8.252;2023-02-21T00:25:33;34.45;;;16.77;;
58242;SDS011;50118;53.232;8.252;2023-02-21T00:28:17;31.60;;;15.93;;
58242;SDS011;50118;53.232;8.252;2023-02-21T00:31:01;33.03;;;16.83;;
58242;SDS011;50118;53.232;8.252;2023-02-21T00:33:45;33.25;;;16.27;;
58242;SDS011;50118;53.232;8.252;2023-02-21T00:36:29;31.65;;;14.68;;
58242;SDS011;50118;53.232;8.252;2023-02-21T00:39:12;32.53;;;16.05;;
58242;SDS011;50118;53.232;8.252;2023-02-21T00:41:56;25.23;;;13.68;;
58242;SDS011;50118;53.232;8.252;2023-02-21T00:44:40;31.88;;;14.52;;
58242;SDS011;50118;53.232;8.252;2023-02-21T00:47:24;27.58;;;13.70;;
58242;SDS011;50118;53.232;8.252;2023-02-21T00:50:08;28.73;;;13.23;;
58242;SDS011;50118;53.232;8.252;2023-02-21T00:52:53;25.65;;;13.15;;
58242;SDS011;50118;53.232;8.252;2023-02-21T00:55:37;28.33;;;13.55;;
58242;SDS011;50118;53.232;8.252;2023-02-21T00:58:21;30.88;;;14.20;;
58242;SDS011;50118;53.232;8.252;2023-02-21T01:01:05;27.80;;;13.55;;
58242;SDS011;50118;53.232;8.252;2023-02-21T01:03:49;31.67;;;13.82;;
58242;SDS011;50118;53.232;8.252;2023-02-21T01:06:33;29.58;;;13.18;;
58242;SDS011;50118;53.232;8.252;2023-02-21T01:09:17;28.67;;;13.50;;
58242;SDS011;50118;53.232;8.252;2023-02-21T01:12:01;26.58;;;13.50;;
58242;SDS011;50118;53.232;8.252;2023-02-21T01:14:46;29.65;;;14.40;;
58242;SDS011;50118;53.232;8.252;2023-02-21T01:17:30;31.45;;;12.95;;
58242;SDS011;50118;53.232;8.252;2023-02-21T01:20:14;25.83;;;13.25;;
58242;SDS011;50118;53.232;8.252;2023-02-21T01:22:57;30.13;;;14.73;;
58242;SDS011;50118;53.232;8.252;2023-02-21T01:25:42;26.30;;;13.75;;
58242;SDS011;50118;53.232;8.252;2023-02-21T01:28:25;28.17;;;14.35;;
58242;SDS011;50118;53.232;8.252;2023-02-21T01:31:10;27.35;;;13.32;;
58242;SDS011;50118;53.232;8.252;2023-02-21T01:33:54;33.17;;;14.77;;
58242;SDS011;50118;53.232;8.252;2023-02-21T01:36:40;28.80;;;13.93;;
58242;SDS011;50118;53.232;8.252;2023-02-21T01:39:24;32.03;;;13.75;;
58242;SDS011;50118;53.232;8.252;2023-02-21T01:42:08;33.97;;;15.15;;
58242;SDS011;50118;53.232;8.252;2023-02-21T01:47:59;29.08;;;13.82;;
58242;SDS011;50118;53.232;8.252;2023-02-21T01:50:43;27.13;;;13.63;;
58242;SDS011;50118;53.232;8.252;2023-02-21T01:53:27;32.67;;;13.25;;
58242;SDS011;50118;53.232;8.252;2023-02-21T01:56:11;30.90;;;14.57;;
58242;SDS011;50118;53.232;8.252;2023-02-21T01:58:56;26.90;;;13.13;;
58242;SDS011;50118;53.232;8.252;2023-02-21T02:01:55;31.52;;;13.13;;
58242;SDS011;50118;53.232;8.252;2023-02-21T02:05:00;27.52;;;13.63;;
58242;SDS011;50118;53.232;8.252;2023-02-21T02:07:45;26.80;;;12.43;;
58242;SDS011;50118;53.232;8.252;2023-02-21T02:10:29;29.42;;;13.65;;
58242;SDS011;50118;53.232;8.252;2023-02-21T02:13:29;28.42;;;13.25;;
58242;SDS011;50118;53.232;8.252;2023-02-21T02:30:22;29.17;;;12.80;;
58242;SDS011;50118;53.232;8.252;2023-02-21T02:33:42;30.95;;;13.25;;
58242;SDS011;50118;53.232;8.252;2023-02-21T02:36:14;22.33;;;11.55;;
58242;SDS011;50118;53.232;8.252;2023-02-21T02:44:17;24.98;;;12.07;;
58242;SDS011;50118;53.232;8.252;2023-02-21T02:46:48;30.88;;;12.48;;
58242;SDS011;50118;53.232;8.252;2023-02-21T02:49:19;21.98;;;11.88;;
58242;SDS011;50118;53.232;8.252;2023-02-21T02:51:48;24.63;;;11.98;;
58242;SDS011;50118;53.232;8.252;2023-02-21T02:54:13;26.35;;;11.32;;
58242;SDS011;50118;53.232;8.252;2023-02-21T02:56:39;27.35;;;11.02;;
58242;SDS011;50118;53.232;8.252;2023-02-21T02:59:08;27.60;;;11.85;;
58242;SDS011;50118;53.232;8.252;2023-02-21T03:11:56;22.08;;;10.38;;
58242;SDS011;50118;53.232;8.252;2023-02-21T03:14:29;22.50;;;10.45;;
58242;SDS011;50118;53.232;8.252;2023-02-21T03:17:02;22.67;;;10.25;;
58242;SDS011;50118;53.232;8.252;2023-02-21T03:19:37;23.10;;;9.85;;
58242;SDS011;50118;53.232;8.252;2023-02-21T03:22:15;22.60;;;10.40;;
58242;SDS011;50118;53.232;8.252;2023-02-21T03:24:44;21.95;;;10.70;;
58242;SDS011;50118;53.232;8.252;2023-02-21T03:27:12;21.48;;;10.18;;
58242;SDS011;50118;53.232;8.252;2023-02-21T03:29:40;20.05;;;10.02;;
58242;SDS011;50118;53.232;8.252;2023-02-21T03:34:42;21.85;;;10.15;;
58242;SDS011;50118;53.232;8.252;2023-02-21T03:37:10;24.00;;;9.50;;
58242;SDS011;50118;53.232;8.252;2023-02-21T03:39:45;26.42;;;10.75;;
58242;SDS011;50118;53.232;8.252;2023-02-21T03:42:11;23.65;;;9.52;;
58242;SDS011;50118;53.232;8.252;2023-02-21T03:44:36;20.50;;;10.02;;
58242;SDS011;50118;53.232;8.252;2023-02-21T03:47:01;21.88;;;9.73;;
58242;SDS011;50118;53.232;8.252;2023-02-21T03:49:27;25.25;;;9.70;;
58242;SDS011;50118;53.232;8.252;2023-02-21T03:51:52;27.08;;;10.48;;
58242;SDS011;50118;53.232;8.252;2023-02-21T03:54:18;23.55;;;10.13;;
58242;SDS011;50118;53.232;8.252;2023-02-21T03:56:43;26.25;;;10.57;;
58242;SDS011;50118;53.232;8.252;2023-02-21T03:59:09;29.85;;;11.32;;
58242;SDS011;50118;53.232;8.252;2023-02-21T04:01:34;27.30;;;11.75;;
58242;SDS011;50118;53.232;8.252;2023-02-21T04:04:00;26.33;;;10.23;;
58242;SDS011;50118;53.232;8.252;2023-02-21T04:06:25;24.98;;;10.60;;
58242;SDS011;50118;53.232;8.252;2023-02-21T04:08:51;23.55;;;11.00;;
58242;SDS011;50118;53.232;8.252;2023-02-21T04:11:17;28.02;;;11.70;;
58242;SDS011;50118;53.232;8.252;2023-02-21T04:13:44;22.65;;;11.48;;
58242;SDS011;50118;53.232;8.252;2023-02-21T04:16:10;30.75;;;11.80;;
58242;SDS011;50118;53.232;8.252;2023-02-21T04:18:35;34.40;;;12.35;;
58242;SDS011;50118;53.232;8.252;2023-02-21T04:21:01;27.95;;;13.23;;
58242;SDS011;50118;53.232;8.252;2023-02-21T04:23:26;26.30;;;12.52;;
58242;SDS011;50118;53.232;8.252;2023-02-21T04:25:52;30.52;;;13.32;;
58242;SDS011;50118;53.232;8.252;2023-02-21T04:28:17;28.27;;;13.77;;
58242;SDS011;50118;53.232;8.252;2023-02-21T04:30:43;30.25;;;12.70;;
58242;SDS011;50118;53.232;8.252;2023-02-21T04:33:08;35.85;;;14.20;;
58242;SDS011;50118;53.232;8.252;2023-02-21T04:35:33;28.58;;;12.88;;
58242;SDS011;50118;53.232;8.252;2023-02-21T04:37:59;28.65;;;13.35;;
58242;SDS011;50118;53.232;8.252;2023-02-21T04:40:24;30.35;;;13.25;;
58242;SDS011;50118;53.232;8.252;2023-02-21T04:42:50;30.95;;;14.00;;
58242;SDS011;50118;53.232;8.252;2023-02-21T04:45:15;31.15;;;13.40;;
58242;SDS011;50118;53.232;8.252;2023-02-21T04:47:41;30.70;;;12.55;;
58242;SDS011;50118;53.232;8.252;2023-02-21T04:50:06;30.90;;;14.27;;
58242;SDS011;50118;53.232;8.252;2023-02-21T04:52:32;31.88;;;13.80;;
58242;SDS011;50118;53.232;8.252;2023-02-21T04:54:57;29.38;;;14.00;;
58242;SDS011;50118;53.232;8.252;2023-02-21T04:57:23;29.95;;;13.48;;
58242;SDS011;50118;53.232;8.252;2023-02-21T04:59:48;29.25;;;12.52;;
58242;SDS011;50118;53.232;8.252;2023-02-21T05:02:20;29.67;;;13.88;;
58242;SDS011;50118;53.232;8.252;2023-02-21T05:04:46;28.50;;;12.85;;
58242;SDS011;50118;53.232;8.252;2023-02-21T05:07:11;23.23;;;11.50;;
58242;SDS011;50118;53.232;8.252;2023-02-21T05:09:37;27.55;;;12.02;;
58242;SDS011;50118;53.232;8.252;2023-02-21T05:12:02;27.05;;;11.82;;
58242;SDS011;50118;53.232;8.252;2023-02-21T05:14:35;27.58;;;10.45;;
58242;SDS011;50118;53.232;8.252;2023-02-21T05:17:02;24.73;;;10.18;;
58242;SDS011;50118;53.232;8.252;2023-02-21T05:19:27;28.15;;;11.38;;
58242;SDS011;50118;53.232;8.252;2023-02-21T05:21:57;28.10;;;11.73;;
58242;SDS011;50118;53.232;8.252;2023-02-21T05:24:24;27.27;;;11.38;;
58242;SDS011;50118;53.232;8.252;2023-02-21T05:26:51;24.15;;;11.77;;
58242;SDS011;50118;53.232;8.252;2023-02-21T05:29:16;26.25;;;11.15;;
58242;SDS011;50118;53.232;8.252;2023-02-21T05:31:42;25.63;;;10.57;;
58242;SDS011;50118;53.232;8.252;2023-02-21T05:34:08;24.98;;;10.82;;
58242;SDS011;50118;53.232;8.252;2023-02-21T05:36:34;26.98;;;11.23;;
58242;SDS011;50118;53.232;8.252;2023-02-21T05:39:00;28.35;;;11.73;;
58242;SDS011;50118;53.232;8.252;2023-02-21T05:41:25;27.02;;;11.75;;
58242;SDS011;50118;53.232;8.252;2023-02-21T05:43:51;26.05;;;11.40;;
58242;SDS011;50118;53.232;8.252;2023-02-21T05:46:22;27.50;;;11.68;;
58242;SDS011;50118;53.232;8.252;2023-02-21T05:48:52;23.83;;;11.02;;
58242;SDS011;50118;53.232;8.252;2023-02-21T05:51:19;21.40;;;10.57;;
58242;SDS011;50118;53.232;8.252;2023-02-21T05:53:44;26.30;;;11.85;;
58242;SDS011;50118;53.232;8.252;2023-02-21T05:56:10;29.35;;;11.45;;
58242;SDS011;50118;53.232;8.252;2023-02-21T05:58:36;27.63;;;12.30;;
58242;SDS011;50118;53.232;8.252;2023-02-21T06:01:03;25.73;;;11.52;;
58242;SDS011;50118;53.232;8.252;2023-02-21T06:03:29;28.63;;;11.38;;
58242;SDS011;50118;53.232;8.252;2023-02-21T06:05:54;31.42;;;11.90;;
58242;SDS011;50118;53.232;8.252;2023-02-21T06:08:20;26.33;;;11.30;;
58242;SDS011;50118;53.232;8.252;2023-02-21T06:10:45;30.15;;;11.70;;
58242;SDS011;50118;53.232;8.252;2023-02-21T06:13:11;30.27;;;12.38;;
58242;SDS011;50118;53.232;8.252;2023-02-21T06:15:36;28.90;;;12.05;;
58242;SDS011;50118;53.232;8.252;2023-02-21T06:18:02;29.73;;;12.57;;
58242;SDS011;50118;53.232;8.252;2023-02-21T06:20:27;27.20;;;12.18;;
58242;SDS011;50118;53.232;8.252;2023-02-21T06:22:53;32.30;;;11.77;;
58242;SDS011;50118;53.232;8.252;2023-02-21T06:25:18;25.85;;;11.38;;
58242;SDS011;50118;53.232;8.252;2023-02-21T06:27:44;31.10;;;11.70;;
58242;SDS011;50118;53.232;8.252;2023-02-21T06:30:10;29.73;;;11.80;;
58242;SDS011;50118;53.232;8.252;2023-02-21T06:32:36;31.30;;;12.30;;
58242;SDS011;50118;53.232;8.252;2023-02-21T06:35:01;30.42;;;11.48;;
58242;SDS011;50118;53.232;8.252;2023-02-21T06:37:28;30.67;;;12.35;;
58242;SDS011;50118;53.232;8.252;2023-02-21T06:39:53;33.85;;;12.65;;
58242;SDS011;50118;53.232;8.252;2023-02-21T06:42:19;32.22;;;13.15;;
58242;SDS011;50118;53.232;8.252;2023-02-21T06:44:46;29.40;;;12.23;;
58242;SDS011;50118;53.232;8.252;2023-02-21T06:47:12;37.47;;;14.05;;
58242;SDS011;50118;53.232;8.252;2023-02-21T06:49:38;34.25;;;13.55;;
58242;SDS011;50118;53.232;8.252;2023-02-21T06:52:03;33.13;;;13.18;;
58242;SDS011;50118;53.232;8.252;2023-02-21T06:54:30;35.30;;;13.93;;
58242;SDS011;50118;53.232;8.252;2023-02-21T06:56:56;37.58;;;13.80;;
58242;SDS011;50118;53.232;8.252;2023-02-21T06:59:21;37.05;;;14.10;;
58242;SDS011;50118;53.232;8.252;2023-02-21T07:01:47;31.75;;;13.02;;
58242;SDS011;50118;53.232;8.252;2023-02-21T07:04:12;40.63;;;15.15;;
58242;SDS011;50118;53.232;8.252;2023-02-21T07:06:38;30.77;;;13.05;;
58242;SDS011;50118;53.232;8.252;2023-02-21T07:09:04;34.15;;;14.13;;
58242;SDS011;50118;53.232;8.252;2023-02-21T07:11:33;32.45;;;13.00;;
58242;SDS011;50118;53.232;8.252;2023-02-21T07:13:59;35.20;;;13.57;;
58242;SDS011;50118;53.232;8.252;2023-02-21T07:16:25;31.15;;;14.25;;
58242;SDS011;50118;53.232;8.252;2023-02-21T07:18:51;34.55;;;13.23;;
58242;SDS011;50118;53.232;8.252;2023-02-21T07:21:17;32.72;;;13.25;;
58242;SDS011;50118;53.232;8.252;2023-02-21T07:23:44;31.95;;;13.90;;
58242;SDS011;50118;53.232;8.252;2023-02-21T07:26:11;36.75;;;14.50;;
58242;SDS011;50118;53.232;8.252;2023-02-21T07:28:36;32.75;;;13.00;;
58242;SDS011;50118;53.232;8.252;2023-02-21T07:31:02;36.53;;;13.68;;
58242;SDS011;50118;53.232;8.252;2023-02-21T07:33:28;33.40;;;12.57;;
58242;SDS011;50118;53.232;8.252;2023-02-21T07:35:54;32.55;;;12.80;;
58242;SDS011;50118;53.232;8.252;2023-02-21T07:38:21;40.20;;;13.38;;
58242;SDS011;50118;53.232;8.252;2023-02-21T07:40:48;36.70;;;13.32;;
58242;SDS011;50118;53.232;8.252;2023-02-21T07:43:13;33.33;;;12.30;;
58242;SDS011;50118;53.232;8.252;2023-02-21T07:45:39;33.47;;;13.40;;
58242;SDS011;50118;53.232;8.252;2023-02-21T07:48:04;30.90;;;12.52;;
58242;SDS011;50118;53.232;8.252;2023-02-21T07:50:30;34.55;;;13.32;;
58242;SDS011;50118;53.232;8.252;2023-02-21T07:52:58;33.05;;;13.05;;
58242;SDS011;50118;53.232;8.252;2023-02-21T07:55:24;31.58;;;13.32;;
58242;SDS011;50118;53.232;8.252;2023-02-21T07:57:50;32.53;;;12.20;;
58242;SDS011;50118;53.232;8.252;2023-02-21T08:00:16;29.85;;;12.80;;
58242;SDS011;50118;53.232;8.252;2023-02-21T08:02:45;32.40;;;12.65;;
58242;SDS011;50118;53.232;8.252;2023-02-21T08:05:13;27.92;;;12.00;;
58242;SDS011;50118;53.232;8.252;2023-02-21T08:07:39;31.35;;;12.15;;
58242;SDS011;50118;53.232;8.252;2023-02-21T08:10:04;32.40;;;12.50;;
58242;SDS011;50118;53.232;8.252;2023-02-21T08:12:30;38.05;;;13.20;;
58242;SDS011;50118;53.232;8.252;2023-02-21T08:14:56;31.38;;;13.15;;
58242;SDS011;50118;53.232;8.252;2023-02-21T08:17:21;32.58;;;12.88;;
58242;SDS011;50118;53.232;8.252;2023-02-21T08:19:47;35.25;;;13.93;;
58242;SDS011;50118;53.232;8.252;2023-02-21T08:22:12;31.83;;;13.60;;
58242;SDS011;50118;53.232;8.252;2023-02-21T08:24:40;33.92;;;13.55;;
58242;SDS011;50118;53.232;8.252;2023-02-21T08:27:06;33.28;;;13.23;;
58242;SDS011;50118;53.232;8.252;2023-02-21T08:29:31;30.35;;;13.43;;
58242;SDS011;50118;53.232;8.252;2023-02-21T08:31:57;27.98;;;12.65;;
58242;SDS011;50118;53.232;8.252;2023-02-21T08:34:22;37.58;;;13.63;;
58242;SDS011;50118;53.232;8.252;2023-02-21T08:36:48;32.67;;;13.23;;
58242;SDS011;50118;53.232;8.252;2023-02-21T08:39:14;31.92;;;12.95;;
58242;SDS011;50118;53.232;8.252;2023-02-21T08:41:41;32.55;;;13.18;;
58242;SDS011;50118;53.232;8.252;2023-02-21T08:44:09;31.33;;;12.93;;
58242;SDS011;50118;53.232;8.252;2023-02-21T08:46:36;29.90;;;11.73;;
58242;SDS011;50118;53.232;8.252;2023-02-21T08:49:03;32.85;;;12.10;;
58242;SDS011;50118;53.232;8.252;2023-02-21T08:51:30;28.90;;;11.73;;
58242;SDS011;50118;53.232;8.252;2023-02-21T08:53:56;30.80;;;11.50;;
58242;SDS011;50118;53.232;8.252;2023-02-21T08:56:22;24.40;;;10.98;;
58242;SDS011;50118;53.232;8.252;2023-02-21T08:58:48;26.65;;;12.07;;
58242;SDS011;50118;53.232;8.252;2023-02-21T09:01:14;30.73;;;12.38;;
58242;SDS011;50118;53.232;8.252;2023-02-21T09:03:40;25.45;;;11.50;;
58242;SDS011;50118;53.232;8.252;2023-02-21T09:06:08;24.65;;;11.65;;
58242;SDS011;50118;53.232;8.252;2023-02-21T09:08:34;29.08;;;11.95;;
58242;SDS011;50118;53.232;8.252;2023-02-21T09:11:03;28.63;;;11.40;;
58242;SDS011;50118;53.232;8.252;2023-02-21T09:13:29;26.70;;;11.75;;
58242;SDS011;50118;53.232;8.252;2023-02-21T09:15:56;27.65;;;11.43;;
58242;SDS011;50118;53.232;8.252;2023-02-21T09:18:23;29.42;;;11.75;;
58242;SDS011;50118;53.232;8.252;2023-02-21T09:20:48;26.95;;;11.25;;
58242;SDS011;50118;53.232;8.252;2023-02-21T09:23:16;25.27;;;9.90;;
58242;SDS011;50118;53.232;8.252;2023-02-21T09:25:45;26.40;;;11.55;;
58242;SDS011;50118;53.232;8.252;2023-02-21T09:28:12;27.98;;;11.32;;
58242;SDS011;50118;53.232;8.252;2023-02-21T09:30:37;31.02;;;11.27;;
58242;SDS011;50118;53.232;8.252;2023-02-21T09:33:03;20.65;;;10.82;;
58242;SDS011;50118;53.232;8.252;2023-02-21T09:35:28;28.10;;;11.60;;
58242;SDS011;50118;53.232;8.252;2023-02-21T09:37:55;24.50;;;10.50;;
58242;SDS011;50118;53.232;8.252;2023-02-21T09:40:27;21.58;;;10.40;;
58242;SDS011;50118;53.232;8.252;2023-02-21T09:43:11;25.80;;;9.90;;
58242;SDS011;50118;53.232;8.252;2023-02-21T09:45:39;25.35;;;10.38;;
58242;SDS011;50118;53.232;8.252;2023-02-21T09:48:14;21.73;;;10.57;;
58242;SDS011;50118;53.232;8.252;2023-02-21T09:50:45;23.33;;;10.35;;
58242;SDS011;50118;53.232;8.252;2023-02-21T09:53:26;22.13;;;10.18;;
58242;SDS011;50118;53.232;8.252;2023-02-21T09:56:07;22.38;;;10.23;;
58242;SDS011;50118;53.232;8.252;2023-02-21T09:58:38;26.90;;;10.77;;
58242;SDS011;50118;53.232;8.252;2023-02-21T10:01:10;26.38;;;10.32;;
58242;SDS011;50118;53.232;8.252;2023-02-21T10:09:24;26.33;;;11.38;;
58242;SDS011;50118;53.232;8.252;2023-02-21T10:12:09;20.38;;;9.07;;
58242;SDS011;50118;53.232;8.252;2023-02-21T10:15:47;20.83;;;10.02;;
58242;SDS011;50118;53.232;8.252;2023-02-21T10:21:02;19.83;;;9.52;;
58242;SDS011;50118;53.232;8.252;2023-02-21T10:26:06;22.67;;;9.93;;
58242;SDS011;50118;53.232;8.252;2023-02-21T10:28:35;19.52;;;9.50;;
58242;SDS011;50118;53.232;8.252;2023-02-21T10:31:03;21.90;;;9.65;;
58242;SDS011;50118;53.232;8.252;2023-02-21T10:33:36;18.80;;;9.15;;
58242;SDS011;50118;53.232;8.252;2023-02-21T10:36:08;23.33;;;9.45;;
58242;SDS011;50118;53.232;8.252;2023-02-21T10:38:36;24.80;;;9.90;;
58242;SDS011;50118;53.232;8.252;2023-02-21T10:41:03;22.42;;;10.13;;
58242;SDS011;50118;53.232;8.252;2023-02-21T10:46:10;26.60;;;11.15;;
58242;SDS011;50118;53.232;8.252;2023-02-21T10:48:40;26.23;;;11.32;;
58242;SDS011;50118;53.232;8.252;2023-02-21T10:51:08;22.88;;;11.68;;
58242;SDS011;50118;53.232;8.252;2023-02-21T10:53:40;21.75;;;10.48;;
58242;SDS011;50118;53.232;8.252;2023-02-21T10:58:32;20.73;;;10.45;;
58242;SDS011;50118;53.232;8.252;2023-02-21T11:01:09;26.67;;;11.77;;
58242;SDS011;50118;53.232;8.252;2023-02-21T11:03:41;24.30;;;11.32;;
58242;SDS011;50118;53.232;8.252;2023-02-21T11:06:09;22.95;;;11.35;;
58242;SDS011;50118;53.232;8.252;2023-02-21T11:08:47;26.48;;;12.10;;
58242;SDS011;50118;53.232;8.252;2023-02-21T11:11:13;25.92;;;11.55;;
58242;SDS011;50118;53.232;8.252;2023-02-21T11:13:38;25.25;;;11.23;;
58242;SDS011;50118;53.232;8.252;2023-02-21T11:16:17;23.83;;;10.60;;
58242;SDS011;50118;53.232;8.252;2023-02-21T11:18:44;26.40;;;11.07;;
58242;SDS011;50118;53.232;8.252;2023-02-21T11:21:11;32.08;;;12.05;;
58242;SDS011;50118;53.232;8.252;2023-02-21T11:23:43;27.13;;;11.32;;
58242;SDS011;50118;53.232;8.252;2023-02-21T11:26:13;26.20;;;12.25;;
58242;SDS011;50118;53.232;8.252;2023-02-21T11:28:41;27.67;;;12.30;;
58242;SDS011;50118;53.232;8.252;2023-02-21T11:31:26;25.30;;;11.05;;
58242;SDS011;50118;53.232;8.252;2023-02-21T11:34:05;26.10;;;11.45;;
58242;SDS011;50118;53.232;8.252;2023-02-21T11:36:40;27.58;;;12.52;;
58242;SDS011;50118;53.232;8.252;2023-02-21T11:39:17;26.35;;;11.93;;
58242;SDS011;50118;53.232;8.252;2023-02-21T11:41:48;24.55;;;11.75;;
58242;SDS011;50118;53.232;8.252;2023-02-21T11:50:06;22.35;;;10.93;;
58242;SDS011;50118;53.232;8.252;2023-02-21T11:52:39;24.77;;;11.38;;
58242;SDS011;50118;53.232;8.252;2023-02-21T11:55:17;24.58;;;11.23;;
58242;SDS011;50118;53.232;8.252;2023-02-21T12:08:44;25.45;;;11.93;;
58242;SDS011;50118;53.232;8.252;2023-02-21T12:11:19;26.33;;;12.32;;
58242;SDS011;50118;53.232;8.252;2023-02-21T12:13:57;26.88;;;11.90;;
58242;SDS011;50118;53.232;8.252;2023-02-21T12:32:43;27.23;;;11.70;;
58242;SDS011;50118;53.232;8.252;2023-02-21T12:35:27;24.27;;;11.52;;
58242;SDS011;50118;53.232;8.252;2023-02-21T12:43:56;17.20;;;9.60;;
58242;SDS011;50118;53.232;8.252;2023-02-21T12:46:31;18.60;;;8.70;;
58242;SDS011;50118;53.232;8.252;2023-02-21T12:49:04;18.05;;;9.43;;
58242;SDS011;50118;53.232;8.252;2023-02-21T12:51:46;19.83;;;9.02;;
58242;SDS011;50118;53.232;8.252;2023-02-21T12:54:19;16.33;;;9.10;;
58242;SDS011;50118;53.232;8.252;2023-02-21T12:56:53;19.35;;;9.10;;
58242;SDS011;50118;53.232;8.252;2023-02-21T13:04:37;21.08;;;10.10;;
58242;SDS011;50118;53.232;8.252;2023-02-21T13:07:42;23.75;;;9.88;;
58242;SDS011;50118;53.232;8.252;2023-02-21T13:10:34;21.13;;;10.45;;
58242;SDS011;50118;53.232;8.252;2023-02-21T13:13:21;18.48;;;10.40;;
58242;SDS011;50118;53.232;8.252;2023-02-21T13:15:51;20.00;;;9.65;;
58242;SDS011;50118;53.232;8.252;2023-02-21T13:18:23;19.35;;;10.23;;
58242;SDS011;50118;53.232;8.252;2023-02-21T13:21:15;20.48;;;10.00;;
58242;SDS011;50118;53.232;8.252;2023-02-21T13:29:39;20.20;;;9.70;;
58242;SDS011;50118;53.232;8.252;2023-02-21T13:32:07;19.33;;;9.95;;
58242;SDS011;50118;53.232;8.252;2023-02-21T13:34:43;17.67;;;9.32;;
58242;SDS011;50118;53.232;8.252;2023-02-21T13:37:14;18.10;;;9.50;;
58242;SDS011;50118;53.232;8.252;2023-02-21T13:39:48;21.65;;;10.35;;
58242;SDS011;50118;53.232;8.252;2023-02-21T13:42:22;19.98;;;10.10;;
58242;SDS011;50118;53.232;8.252;2023-02-21T13:44:51;19.98;;;10.27;;
58242;SDS011;50118;53.232;8.252;2023-02-21T13:53:24;20.58;;;10.25;;
58242;SDS011;50118;53.232;8.252;2023-02-21T13:58:38;20.15;;;10.20;;
58242;SDS011;50118;53.232;8.252;2023-02-21T14:01:22;17.75;;;10.23;;
58242;SDS011;50118;53.232;8.252;2023-02-21T14:09:33;19.38;;;10.50;;
58242;SDS011;50118;53.232;8.252;2023-02-21T14:12:03;22.77;;;10.40;;
58242;SDS011;50118;53.232;8.252;2023-02-21T14:14:30;23.10;;;10.82;;
58242;SDS011;50118;53.232;8.252;2023-02-21T14:17:03;19.08;;;10.23;;
58242;SDS011;50118;53.232;8.252;2023-02-21T14:24:38;21.45;;;10.90;;
58242;SDS011;50118;53.232;8.252;2023-02-21T14:45:27;22.08;;;12.27;;
58242;SDS011;50118;53.232;8.252;2023-02-21T15:10:24;20.92;;;11.70;;
58242;SDS011;50118;53.232;8.252;2023-02-21T15:13:00;22.52;;;11.60;;
58242;SDS011;50118;53.232;8.252;2023-02-21T15:15:42;24.00;;;12.20;;
58242;SDS011;50118;53.232;8.252;2023-02-21T15:20:46;21.38;;;11.85;;
58242;SDS011;50118;53.232;8.252;2023-02-21T15:23:37;24.50;;;12.10;;
58242;SDS011;50118;53.232;8.252;2023-02-21T15:26:24;24.30;;;12.48;;
58242;SDS011;50118;53.232;8.252;2023-02-21T15:31:37;22.58;;;11.77;;
58242;SDS011;50118;53.232;8.252;2023-02-21T15:34:05;22.40;;;10.50;;
58242;SDS011;50118;53.232;8.252;2023-02-21T15:36:42;21.25;;;12.25;;
58242;SDS011;50118;53.232;8.252;2023-02-21T15:39:21;21.92;;;11.27;;
58242;SDS011;50118;53.232;8.252;2023-02-21T15:41:52;20.48;;;11.25;;
58242;SDS011;50118;53.232;8.252;2023-02-21T15:44:25;18.95;;;10.98;;
58242;SDS011;50118;53.232;8.252;2023-02-21T15:47:02;21.90;;;11.57;;
58242;SDS011;50118;53.232;8.252;2023-02-21T15:49:34;22.10;;;11.30;;
58242;SDS011;50118;53.232;8.252;2023-02-21T15:52:03;21.10;;;11.68;;
58242;SDS011;50118;53.232;8.252;2023-02-21T15:54:30;21.02;;;11.18;;
58242;SDS011;50118;53.232;8.252;2023-02-21T15:59:27;23.85;;;12.02;;
58242;SDS011;50118;53.232;8.252;2023-02-21T16:02:10;21.13;;;11.65;;
58242;SDS011;50118;53.232;8.252;2023-02-21T16:04:39;24.52;;;12.90;;
58242;SDS011;50118;53.232;8.252;2023-02-21T16:07:22;22.10;;;13.10;;
58242;SDS011;50118;53.232;8.252;2023-02-21T16:10:05;22.70;;;13.13;;
58242;SDS011;50118;53.232;8.252;2023-02-21T16:12:38;25.95;;;14.30;;
58242;SDS011;50118;53.232;8.252;2023-02-21T16:17:42;25.92;;;13.85;;
58242;SDS011;50118;53.232;8.252;2023-02-21T16:20:14;26.05;;;14.18;;
58242;SDS011;50118;53.232;8.252;2023-02-21T16:27:39;28.42;;;16.20;;
58242;SDS011;50118;53.232;8.252;2023-02-21T16:30:25;29.55;;;16.98;;
58242;SDS011;50118;53.232;8.252;2023-02-21T16:32:57;28.42;;;15.75;;
58242;SDS011;50118;53.232;8.252;2023-02-21T16:35:27;28.88;;;16.08;;
58242;SDS011;50118;53.232;8.252;2023-02-21T16:37:54;30.65;;;16.42;;
58242;SDS011;50118;53.232;8.252;2023-02-21T16:40:22;29.30;;;16.30;;
58242;SDS011;50118;53.232;8.252;2023-02-21T16:42:51;32.78;;;17.17;;
58242;SDS011;50118;53.232;8.252;2023-02-21T16:45:17;30.52;;;16.83;;
58242;SDS011;50118;53.232;8.252;2023-02-21T16:47:44;27.77;;;15.82;;
58242;SDS011;50118;53.232;8.252;2023-02-21T16:50:21;30.48;;;17.30;;
58242;SDS011;50118;53.232;8.252;2023-02-21T16:53:09;30.35;;;16.65;;
58242;SDS011;50118;53.232;8.252;2023-02-21T16:55:39;29.45;;;16.23;;
58242;SDS011;50118;53.232;8.252;2023-02-21T17:00:56;35.85;;;17.95;;
58242;SDS011;50118;53.232;8.252;2023-02-21T17:03:24;43.70;;;22.02;;
58242;SDS011;50118;53.232;8.252;2023-02-21T17:05:53;41.90;;;20.17;;
58242;SDS011;50118;53.232;8.252;2023-02-21T17:08:19;36.20;;;18.70;;
58242;SDS011;50118;53.232;8.252;2023-02-21T17:10:46;38.85;;;19.27;;
58242;SDS011;50118;53.232;8.252;2023-02-21T17:13:12;32.00;;;17.63;;
58242;SDS011;50118;53.232;8.252;2023-02-21T17:15:37;32.80;;;18.52;;
58242;SDS011;50118;53.232;8.252;2023-02-21T17:18:02;30.17;;;16.25;;
58242;SDS011;50118;53.232;8.252;2023-02-21T17:20:28;30.80;;;16.33;;
58242;SDS011;50118;53.232;8.252;2023-02-21T17:22:54;33.35;;;16.88;;
58242;SDS011;50118;53.232;8.252;2023-02-21T17:25:22;30.92;;;16.70;;
58242;SDS011;50118;53.232;8.252;2023-02-21T17:27:49;38.28;;;19.42;;
58242;SDS011;50118;53.232;8.252;2023-02-21T17:30:15;33.53;;;17.27;;
58242;SDS011;50118;53.232;8.252;2023-02-21T17:32:42;36.58;;;19.10;;
58242;SDS011;50118;53.232;8.252;2023-02-21T17:35:09;34.85;;;17.77;;
58242;SDS011;50118;53.232;8.252;2023-02-21T17:37:34;34.55;;;18.20;;
58242;SDS011;50118;53.232;8.252;2023-02-21T17:40:00;34.97;;;18.92;;
58242;SDS011;50118;53.232;8.252;2023-02-21T17:42:25;34.75;;;17.77;;
58242;SDS011;50118;53.232;8.252;2023-02-21T17:44:51;35.63;;;19.67;;
58242;SDS011;50118;53.232;8.252;2023-02-21T17:47:18;34.60;;;19.13;;
58242;SDS011;50118;53.232;8.252;2023-02-21T17:49:46;34.15;;;17.83;;